Timeline UpdatesTrip UpdatesNews PostsPvt PostsTravel TipsAdmin PostsConv PostsFollowed PostsChat RequestsBlog PostsPNR Posts

Disclaimer
Search
 
 
Wed Jul 30, 2014 12:36:09 ISTHomeTrainsΣChainsAtlasPNRForumGalleryNewsFAQTripsMembersLoginFeedback
No Recent News for this Train
Other Trains in the News **new
Latest...
..
Tue Jul 15, 2014 (10:54AM)
⇐ Return Journey: Train# 18237

18238/Chhattisgarh Express

Sep 16 2013 (7:54PM)
Change Departure Station:
Change Arrival Station:
Post a Train Travel TipPost a Train Travel Tip **new
Post a Comment/Question/Picture/VideoPost a Comment/Question/Picture/Video
Inaugural Run
Sat Jan 01, 1977
Pantry/Catering
✓ Pantry Car Avbl
✓ Catering Avbl
Loco/Rake Reversals
NGP/Nagpur Junction (8);
RSA - Rake Sharing
0
Rake/Coach Composition
LOCO-SLR-GS-GS-S1-S2-S3-S4-S5-S6-S7-S8-S9-S10-PC-S11-S12-B3-B2-B1-A1-HA1-GS-SLR-SP1
Loco
ASR - NZM ---- TKD WDP4 NZM - NGP --- AJNI...
Read more...
WAP7 NGP - BSP --- ET WAP4 Author: Mahesh Gupta Entry# 295348
News    PNR    Forum    Time-Table    Availability    Fare Chart    Map    Arr/Dep History    Trips    Gallery    ΣChains    X/O    Timeline    
Travel Time: 26h 25m    57 halts    Distance: 1210 km    Avg Speed: 45 km/hr
Type: Mail/Express
Zone: SECR/South East Central
Departs @ 16:15 (Avg 11m late)
Platform# 2
SMTWTFS
Amritsar Junction/ASR 
Arrives @ 18:40 +1 night (Avg 1h 9m late)
Platform# 1
SMTWTFS
Bhopal Junction/BPL 

57 halts. 173 intermediate Stations between Amritsar Junction and Bhopal Junction

Show ALL intermediate Stations  Show Old Time-Table

#CodeStation NameX/OArrivesAvgDepartsAvgHaltPFDay#KmSpeedElevZoneAddress
1ASR»Amritsar Junction (5)»  -16:15+11210.077233mNRAmritsar 143002, Punjab
2JNLJandiala (2)  16:30+2116:32+212m2119.280238mNRJandiala, Punjab
3BEASBeas Junction (2)  16:50+2316:52+232m2143.061238mNRBeas, Punjab
4KREKartarpur (2)X  17:13+2217:15+232m1164.568236mNRKartarpur, Punjab
5JUCJalandhar City Junction (5)X  17:28+2517:35+287m2179.122239mNRJalandhar 144001, Punjab
6JRCJalandhar Cantt. Junction (3)X  17:48+2417:50+342m2184.065239mNRNear Rama Mandi, Punjab
7PGWPhagwara Junction (3)X  18:05+3518:07+352m11100.342245mNRPhagwara, Punjab
8GRYGoraya (2)XO  18:21+3318:23+362m11110.133240mNRGoraya, Punjab
9PHRPhillaur Junction (3)  18:46+2418:48+232m11122.846246mNRPhillaur, Punjab
10LDHLudhiana Junction (7)X  19:05+2519:15+2610m11135.922246mNRLudhiana 141001, Punjab
11SNLSanehwal (3)X  19:56+719:58+112m21151.149260mNRLudhiana, Punjab
12DOADoraha (2)X  20:07+1720:08+181m21158.457261mNRDoraha, Punjab
13CHAChawapail (2)X  20:18+1920:20+192m21167.866267mNRLudhiana, Punjab
14KNNKhanna (3)  20:30+2020:32+212m21178.854269mNRNH 1, Punjab
15GVGMandi Gobindgarh (2)  20:41+2120:43+212m21186.949268mNRMandi Gobindgarh, Punjab
16SIRSirhind Junction (3)X  20:55+2120:57+212m21196.765271mNRSirhind, Punjab
17RPJRajpura Junction (3)X  21:20+2321:22+232m21221.553272mNRNH-1, Punjab
18UBCAmbala City (3)X  21:45+2021:46+221m11242.021273mNRNH-1, Haryana
19UMBAmbala Cantt. Junction (7)X  22:08+1522:20+1612m21249.668278mNRAmbala 133001, Haryana
20RAABarara (2)  22:42+2022:44+242m11274.371279mNRBarara, Haryana
21JUDWJagadhri Workshop (2)  23:02+2523:04+262m11295.643280mNRRailway Workshop Road, Haryana
22JUDYamunanagar-Jagadhri (3)  23:11+2723:13+292m21300.635275mNRYamunanagar, Haryana
23SRESaharanpur Junction (6)X  00:05+1500:15+1610m32330.768276mNRSaharanpur, Uttar Pradesh
24DBDDeoband (2)  00:45+3100:47+322m12364.976258mNRSaharanpur, Uttar Pradesh
25MOZMuzaffarnagar (3)  01:06+3501:08+362m12388.951247mNRMuzaffarNagar, Uttar Pradesh
26KATKhatauli (2)X  01:34+3201:36+362m--2411.154239mNRKhatauli, Uttar Pradesh
27DRLADaurala (1)  01:56+3301:58+342m12429.061232mNRMeerut, Uttar Pradesh
28MUTMeerut Cantt. (2)  02:09+3502:11+362m12440.229230mNRMeerut, Uttar Pradesh
29MTCMeerut City Junction (6)  02:20+3602:25+345m22444.583229mNRMeerut, Uttar Pradesh
30MDNRModinagar (2)  02:39+3802:41+382m--2464.078221mNRGhaziabad, Uttar Pradesh
31GUHGuldhar (2)  02:55+3902:57+382m--2482.119224mNRGhaziabad, Uttar Pradesh
32GZBGhaziabad Junction (6)  03:28+2503:30+262m32491.740217mNRGhaziabad, Uttar Pradesh
33SBBSahibabad Junction (5)  03:40+3103:41+321m--2498.428209mNRGhaziabad, Uttar Pradesh
34NZMDelhi Hazrat Nizamuddin (7)X04:15+2904:40+3125m22514.560209mNRNizamuddin East/Sarai KaleKhan Bus Terminal, Delhi NCT
35BVHBallabgarh (5)X  05:09+3605:11+362m42543.342203mNRFaridabad, Haryana
36PWLPalwal (8)X  05:41+3105:43+322m42564.585200mNRPalwal, Haryana
37KSVKosi Kalan (3)X  06:13+3906:15+392m22607.056189mNCRKosi Kalan, Uttar Pradesh
38CHJChata (4)X  06:26+4006:28+412m12617.369185mNCRChhata, Uttar Pradesh
39MTJMathura Junction (10)X  06:55+4407:00+435m12648.462179mNCRMathura, Uttar Pradesh
40RKMRaja Ki Mandi (4)XO  07:48+5107:50+522m22698.16170mNCRAgra, Uttar Pradesh
41AGCAgra Cantt. (6)X  08:30+3208:40+3410m12702.179174mNCRAgra, Uttar Pradesh
42DHODholpur Junction (3)X  09:20+4909:22+1:022m22754.770177mNCRDholpur, Rajasthan
43MRAMorena (3)X  09:45+1:0909:50+1:125m12781.672176mNCRMorena, Madhya Pradesh
44BAOBanmorXO  10:06+1:1610:08+1:202m--2800.931189mNCRGwalior, Madhya Pradesh
45GWLGwalior Junction (4)XO  10:45+1:1310:50+1:175m12820.163214mNCRGwalior, Madhya Pradesh
46DBADabra (3)  11:30+1:1911:32+1:202m32862.463204mNCRDabra(District-Gwalior), Madhya Pradesh
47SORSonagir (2)O  11:50+1:2011:52+1:222m--2881.330211mNCRDatia, Madhya Pradesh
48DAADatia (2)X  12:15+1:1412:17+1:152m--2892.828264mNCRDatia, Madhya Pradesh
49JHSJhansi Junction (7)  13:10+5013:20+5410m--2917.861259mNCRJhansi, Uttar Pradesh
50BABBabina (3)  13:45+1:0413:47+1:062m12943.360285mNCRBabina, Uttar Pradesh
51BZYBasai (3)X  13:59+1:0914:01+1:012m12955.448287mNCR07522289600(Gate ManMob. - 9452701575), Madhya Pradesh
52TBTTalbahat (4)  14:17+1:0014:19+1:032m22968.283314mNCRKhaniyadhana Station Rd, Madhya Pradesh
53LARLalitpur (3)  14:48+1:0414:50+1:062m121008.285373mNCRLalitpur, Uttar Pradesh
54DUADhaura (3)XO  15:10+1:1315:12+1:162m--21036.528407mNCRDhaura Tanda, Madhya Pradesh
55BINABina Junction (4)X  16:25+5916:30+1:005m221071.169414mWCRJn Pt - KATNI/GUNA/ BPL/JHS, Madhya Pradesh
56MABAMandi Bamora (3)XO  16:45+1:0516:47+1:062m221088.378413mWCRState Highway 14, Madhya Pradesh
57BAQGanj Basoda (4)  17:09+1:0817:11+1:082m221116.884416mWCRVidisha, Madhya Pradesh
58BHSVidisha (3)X  17:39+1:1217:41+1:142m221156.154432mWCRVidisha, Madhya Pradesh
59BPL•Bhopal Junction (6)•X  18:40+1:0918:45+1:045m121209.638497mWCRBhopal, Madhya Pradesh
60HBJBhopal HabibGanj (5)  18:55+1:0818:57+1:082m--21215.977496mWCRHabibGanj, Madhya Pradesh
61ODGObaidulla GanjX  19:20+1:2319:22+1:212m--21245.533450mWCRObaidullaganj Raisen Dist., Madhya Pradesh
62HBDHoshangabad (2)XO  20:30+1:0320:32+1:062m221283.329308mWCRHoshangabad, Madhya Pradesh
63ETItarsi Junction (7)  21:10+5721:15+1:035m321301.368329mWCRItarsi 461111, Madhya Pradesh
64GDYAGhoradongri (3)X  22:17+1:0922:19+1:092m--21371.750410mCRBetul, Madhya Pradesh
65BZUBetul (3)  23:02+1:1123:05+1:123m--21407.646644mCRBetul, Madhya Pradesh
66AMLAAmla Junction (5)  23:35+1:0400:10+5335m121430.598733mCRAmla Distt. Betul, Madhya Pradesh
67MTYMultai (2)  00:24+5800:26+592m--31453.458762mCRMultai, Madhya Pradesh
68PARPandhurna (2)  01:08+1:0101:10+1:012m131494.285481mCRDistt: Chhindwara, Madhya Pradesh
69NRKRNarkher Junction (3)X  01:23+1:0501:25+1:052m--31512.566411mCRNarkher, Maharashtra
70KATLKatol (2)X  01:48+1:0501:50+1:072m--31537.736415mCRKatol, Maharashtra
71NGPNagpur Junction (8)03:30+3703:55+4125m631598.548314mCRNagpur 440001, Maharashtra
72KPKamptee (3)X  04:13+4104:15+442m--31612.896290mSECRMH 441001, Maharashtra
73BRDBhandara Road (2)X  04:45+5304:47+532m231660.877266mSECRState Highway 252, Maharashtra
74TMRTumsar Road (3)  05:01+5305:03+542m--31678.781267mSECRBhandara, Maharashtra
75TROTirora (3)  05:18+5705:20+582m--31699.157282mSECRDist Gondiya, Maharashtra
76GGondia Junction (7)X  05:51+1:0305:56+1:025m--31728.398316mSECRGondia 441601, Maharashtra
77AGNAmgaon (2)  06:10+1:0006:12+1:012m--31751.280317mSECRGondia, Maharashtra
78SKSSalekasa (2)  06:23+1:0306:25+1:042m--31765.956312mSECRRajnandgaon, Chhattisgarh
79DGGDongargarh (2)  07:03+1:0107:05+1:032m--31801.663353mSECRDongargarh, Chhattisgarh
80RJNRaj Nandgaon (3)  07:35+1:0607:40+1:055m--31833.230313mSECRRajnandgaon, Chhattisgarh
81DURGDurg Junction (6)X  08:40+3808:55+3815m--31863.660299mSECRPh: 91-788-2322059, Chhattisgarh
82BPHBBhilai Power House (3)X  09:04+3109:06+312m--31872.643312mSECRBhilai, Chhattisgarh
83RRaipur Junction (6)  09:45+4209:55+4510m531900.669297mSECRRaipur, Chhattisgarh
84TLDTilda (3)X  10:28+5810:30+582m--31938.849291mSECRBanjari Rd, Chhattisgarh
85HNHathbandhX  10:43+5510:45+552m--31949.571283mSECRRaipur, Chhattisgarh
86BYTBhatapara (4)X  10:58+5611:00+562m--31964.861270mSECRBanjari Road, Chhattisgarh
87BYLBelhaX  11:30+5611:32+552m--31995.419269mSECRCollege Road, Chhattisgarh
88BSPBilaspur Junction (8)  12:20+36-832011.0-271mSECRBilaspur, Chhattisgarh
Scroll to Top
Scroll to Bottom